sensor_id;sensor_type;location;lat;lon;timestamp;P1;durP1;ratioP1;P2;durP2;ratioP2
20090;SDS011;10205;49.678;6.560;2022-09-09T00:02:18;1.40;;;1.02;;
20090;SDS011;10205;49.678;6.560;2022-09-09T00:04:49;4.43;;;1.10;;
20090;SDS011;10205;49.678;6.560;2022-09-09T00:07:32;1.02;;;0.77;;
20090;SDS011;10205;49.678;6.560;2022-09-09T00:10:17;1.83;;;0.90;;
20090;SDS011;10205;49.678;6.560;2022-09-09T00:12:55;6.30;;;1.40;;
20090;SDS011;10205;49.678;6.560;2022-09-09T00:15:35;3.63;;;1.00;;
20090;SDS011;10205;49.678;6.560;2022-09-09T00:18:12;2.47;;;1.08;;
20090;SDS011;10205;49.678;6.560;2022-09-09T00:20:52;1.98;;;0.70;;
20090;SDS011;10205;49.678;6.560;2022-09-09T00:23:28;4.30;;;0.95;;
20090;SDS011;10205;49.678;6.560;2022-09-09T00:26:02;3.03;;;0.93;;
20090;SDS011;10205;49.678;6.560;2022-09-09T00:28:38;1.80;;;0.75;;
20090;SDS011;10205;49.678;6.560;2022-09-09T00:31:13;1.35;;;0.63;;
20090;SDS011;10205;49.678;6.560;2022-09-09T00:33:47;4.32;;;1.30;;
20090;SDS011;10205;49.678;6.560;2022-09-09T00:36:17;2.45;;;0.70;;
20090;SDS011;10205;49.678;6.560;2022-09-09T00:38:51;2.20;;;0.82;;
20090;SDS011;10205;49.678;6.560;2022-09-09T00:41:28;2.60;;;1.25;;
20090;SDS011;10205;49.678;6.560;2022-09-09T00:44:14;3.15;;;1.08;;
20090;SDS011;10205;49.678;6.560;2022-09-09T00:46:59;2.63;;;0.95;;
20090;SDS011;10205;49.678;6.560;2022-09-09T00:49:46;2.08;;;0.82;;
20090;SDS011;10205;49.678;6.560;2022-09-09T00:52:30;2.83;;;1.00;;
20090;SDS011;10205;49.678;6.560;2022-09-09T00:55:07;1.88;;;0.70;;
20090;SDS011;10205;49.678;6.560;2022-09-09T00:57:45;6.00;;;1.33;;
20090;SDS011;10205;49.678;6.560;2022-09-09T01:00:19;2.05;;;0.75;;
20090;SDS011;10205;49.678;6.560;2022-09-09T01:02:52;2.90;;;1.10;;
20090;SDS011;10205;49.678;6.560;2022-09-09T01:05:39;3.83;;;0.80;;
20090;SDS011;10205;49.678;6.560;2022-09-09T01:08:20;2.92;;;1.13;;
20090;SDS011;10205;49.678;6.560;2022-09-09T01:11:16;4.18;;;1.17;;
20090;SDS011;10205;49.678;6.560;2022-09-09T01:13:55;3.88;;;0.80;;
20090;SDS011;10205;49.678;6.560;2022-09-09T01:16:30;3.20;;;1.20;;
20090;SDS011;10205;49.678;6.560;2022-09-09T01:18:59;1.35;;;0.70;;
20090;SDS011;10205;49.678;6.560;2022-09-09T01:21:32;3.60;;;1.08;;
20090;SDS011;10205;49.678;6.560;2022-09-09T01:24:18;3.95;;;0.90;;
20090;SDS011;10205;49.678;6.560;2022-09-09T01:26:56;1.63;;;0.85;;
20090;SDS011;10205;49.678;6.560;2022-09-09T01:29:27;1.73;;;0.90;;
20090;SDS011;10205;49.678;6.560;2022-09-09T01:31:56;1.48;;;0.73;;
20090;SDS011;10205;49.678;6.560;2022-09-09T01:34:26;2.45;;;0.95;;
20090;SDS011;10205;49.678;6.560;2022-09-09T01:36:59;1.83;;;0.90;;
20090;SDS011;10205;49.678;6.560;2022-09-09T01:39:31;2.97;;;1.25;;
20090;SDS011;10205;49.678;6.560;2022-09-09T01:42:02;1.45;;;0.90;;
20090;SDS011;10205;49.678;6.560;2022-09-09T01:44:32;3.75;;;1.08;;
20090;SDS011;10205;49.678;6.560;2022-09-09T01:47:01;1.38;;;0.68;;
20090;SDS011;10205;49.678;6.560;2022-09-09T01:49:29;3.50;;;1.13;;
20090;SDS011;10205;49.678;6.560;2022-09-09T01:51:59;3.83;;;1.00;;
20090;SDS011;10205;49.678;6.560;2022-09-09T01:54:27;3.45;;;1.08;;
20090;SDS011;10205;49.678;6.560;2022-09-09T01:57:01;2.38;;;1.20;;
20090;SDS011;10205;49.678;6.560;2022-09-09T01:59:47;4.38;;;1.00;;
20090;SDS011;10205;49.678;6.560;2022-09-09T02:02:28;2.05;;;0.90;;
20090;SDS011;10205;49.678;6.560;2022-09-09T02:05:03;3.70;;;0.90;;
20090;SDS011;10205;49.678;6.560;2022-09-09T02:07:44;1.98;;;1.15;;
20090;SDS011;10205;49.678;6.560;2022-09-09T02:10:16;1.25;;;0.63;;
20090;SDS011;10205;49.678;6.560;2022-09-09T02:12:49;2.08;;;0.90;;
20090;SDS011;10205;49.678;6.560;2022-09-09T02:15:26;2.00;;;0.80;;
20090;SDS011;10205;49.678;6.560;2022-09-09T02:18:00;3.45;;;0.68;;
20090;SDS011;10205;49.678;6.560;2022-09-09T02:20:33;2.92;;;1.15;;
20090;SDS011;10205;49.678;6.560;2022-09-09T02:23:04;3.28;;;1.10;;
20090;SDS011;10205;49.678;6.560;2022-09-09T02:25:35;2.05;;;0.98;;
20090;SDS011;10205;49.678;6.560;2022-09-09T02:28:07;2.58;;;1.02;;
20090;SDS011;10205;49.678;6.560;2022-09-09T02:30:40;3.05;;;1.00;;
20090;SDS011;10205;49.678;6.560;2022-09-09T02:33:12;4.22;;;1.08;;
20090;SDS011;10205;49.678;6.560;2022-09-09T02:35:40;2.47;;;0.90;;
20090;SDS011;10205;49.678;6.560;2022-09-09T02:38:12;1.15;;;0.70;;
20090;SDS011;10205;49.678;6.560;2022-09-09T02:40:42;3.78;;;0.90;;
20090;SDS011;10205;49.678;6.560;2022-09-09T02:43:12;1.65;;;1.00;;
20090;SDS011;10205;49.678;6.560;2022-09-09T02:45:43;3.38;;;0.98;;
20090;SDS011;10205;49.678;6.560;2022-09-09T02:48:20;1.80;;;0.73;;
20090;SDS011;10205;49.678;6.560;2022-09-09T02:50:59;4.03;;;1.10;;
20090;SDS011;10205;49.678;6.560;2022-09-09T02:53:37;1.85;;;0.73;;
20090;SDS011;10205;49.678;6.560;2022-09-09T02:56:14;3.45;;;1.10;;
20090;SDS011;10205;49.678;6.560;2022-09-09T02:58:47;2.92;;;0.85;;
20090;SDS011;10205;49.678;6.560;2022-09-09T03:01:17;4.45;;;0.80;;
20090;SDS011;10205;49.678;6.560;2022-09-09T03:03:44;2.35;;;0.93;;
20090;SDS011;10205;49.678;6.560;2022-09-09T03:06:11;3.00;;;0.88;;
20090;SDS011;10205;49.678;6.560;2022-09-09T03:08:39;1.60;;;1.05;;
20090;SDS011;10205;49.678;6.560;2022-09-09T03:11:07;3.67;;;0.82;;
20090;SDS011;10205;49.678;6.560;2022-09-09T03:13:35;3.70;;;1.13;;
20090;SDS011;10205;49.678;6.560;2022-09-09T03:16:04;2.47;;;0.90;;
20090;SDS011;10205;49.678;6.560;2022-09-09T03:18:31;2.60;;;1.10;;
20090;SDS011;10205;49.678;6.560;2022-09-09T03:20:59;2.22;;;0.80;;
20090;SDS011;10205;49.678;6.560;2022-09-09T03:23:29;3.80;;;1.05;;
20090;SDS011;10205;49.678;6.560;2022-09-09T03:25:56;1.75;;;0.98;;
20090;SDS011;10205;49.678;6.560;2022-09-09T03:28:23;1.55;;;0.73;;
20090;SDS011;10205;49.678;6.560;2022-09-09T03:30:57;4.30;;;1.15;;
20090;SDS011;10205;49.678;6.560;2022-09-09T03:33:27;2.70;;;1.00;;
20090;SDS011;10205;49.678;6.560;2022-09-09T03:35:56;3.20;;;1.05;;
20090;SDS011;10205;49.678;6.560;2022-09-09T03:38:23;1.55;;;0.70;;
20090;SDS011;10205;49.678;6.560;2022-09-09T03:40:51;3.22;;;0.80;;
20090;SDS011;10205;49.678;6.560;2022-09-09T03:43:22;3.30;;;0.75;;
20090;SDS011;10205;49.678;6.560;2022-09-09T03:45:50;2.65;;;0.80;;
20090;SDS011;10205;49.678;6.560;2022-09-09T03:48:18;3.25;;;0.60;;
20090;SDS011;10205;49.678;6.560;2022-09-09T03:50:47;3.53;;;1.27;;
20090;SDS011;10205;49.678;6.560;2022-09-09T03:53:17;3.97;;;0.90;;
20090;SDS011;10205;49.678;6.560;2022-09-09T03:55:50;3.83;;;1.30;;
20090;SDS011;10205;49.678;6.560;2022-09-09T03:58:19;2.58;;;1.13;;
20090;SDS011;10205;49.678;6.560;2022-09-09T04:00:52;4.65;;;1.20;;
20090;SDS011;10205;49.678;6.560;2022-09-09T04:03:21;2.88;;;1.10;;
20090;SDS011;10205;49.678;6.560;2022-09-09T04:05:51;4.00;;;1.10;;
20090;SDS011;10205;49.678;6.560;2022-09-09T04:08:18;7.38;;;1.25;;
20090;SDS011;10205;49.678;6.560;2022-09-09T04:10:47;7.72;;;1.52;;
20090;SDS011;10205;49.678;6.560;2022-09-09T04:13:16;2.67;;;1.10;;
20090;SDS011;10205;49.678;6.560;2022-09-09T04:15:49;3.38;;;1.20;;
20090;SDS011;10205;49.678;6.560;2022-09-09T04:18:18;3.53;;;1.20;;
20090;SDS011;10205;49.678;6.560;2022-09-09T04:20:46;2.00;;;0.88;;
20090;SDS011;10205;49.678;6.560;2022-09-09T04:23:16;8.65;;;1.20;;
20090;SDS011;10205;49.678;6.560;2022-09-09T04:25:45;4.93;;;1.27;;
20090;SDS011;10205;49.678;6.560;2022-09-09T04:28:13;4.97;;;1.30;;
20090;SDS011;10205;49.678;6.560;2022-09-09T04:30:41;2.80;;;1.20;;
20090;SDS011;10205;49.678;6.560;2022-09-09T04:33:10;5.43;;;1.17;;
20090;SDS011;10205;49.678;6.560;2022-09-09T04:35:39;5.05;;;1.23;;
20090;SDS011;10205;49.678;6.560;2022-09-09T04:38:12;4.72;;;0.98;;
20090;SDS011;10205;49.678;6.560;2022-09-09T04:40:46;3.00;;;0.88;;
20090;SDS011;10205;49.678;6.560;2022-09-09T04:43:14;4.05;;;1.15;;
20090;SDS011;10205;49.678;6.560;2022-09-09T04:45:41;3.60;;;1.17;;
20090;SDS011;10205;49.678;6.560;2022-09-09T04:48:09;3.00;;;0.98;;
20090;SDS011;10205;49.678;6.560;2022-09-09T04:50:36;2.30;;;1.00;;
20090;SDS011;10205;49.678;6.560;2022-09-09T04:53:04;2.08;;;0.90;;
20090;SDS011;10205;49.678;6.560;2022-09-09T04:55:32;3.58;;;1.05;;
20090;SDS011;10205;49.678;6.560;2022-09-09T04:58:03;3.72;;;1.02;;
20090;SDS011;10205;49.678;6.560;2022-09-09T05:00:32;2.97;;;1.10;;
20090;SDS011;10205;49.678;6.560;2022-09-09T05:03:02;3.08;;;1.33;;
20090;SDS011;10205;49.678;6.560;2022-09-09T05:05:30;2.08;;;1.05;;
20090;SDS011;10205;49.678;6.560;2022-09-09T05:08:03;5.32;;;1.45;;
20090;SDS011;10205;49.678;6.560;2022-09-09T05:10:32;3.33;;;1.00;;
20090;SDS011;10205;49.678;6.560;2022-09-09T05:13:00;3.00;;;1.05;;
20090;SDS011;10205;49.678;6.560;2022-09-09T05:15:29;4.32;;;1.15;;
20090;SDS011;10205;49.678;6.560;2022-09-09T05:17:56;3.35;;;1.10;;
20090;SDS011;10205;49.678;6.560;2022-09-09T05:20:25;3.65;;;1.33;;
20090;SDS011;10205;49.678;6.560;2022-09-09T05:22:53;4.65;;;1.48;;
20090;SDS011;10205;49.678;6.560;2022-09-09T05:25:21;2.78;;;1.30;;
20090;SDS011;10205;49.678;6.560;2022-09-09T05:27:49;4.68;;;1.30;;
20090;SDS011;10205;49.678;6.560;2022-09-09T05:30:17;3.88;;;1.38;;
20090;SDS011;10205;49.678;6.560;2022-09-09T05:32:46;3.38;;;1.10;;
20090;SDS011;10205;49.678;6.560;2022-09-09T05:35:14;3.90;;;1.45;;
20090;SDS011;10205;49.678;6.560;2022-09-09T05:37:41;4.80;;;1.08;;
20090;SDS011;10205;49.678;6.560;2022-09-09T05:40:08;3.75;;;1.30;;
20090;SDS011;10205;49.678;6.560;2022-09-09T05:42:37;2.38;;;1.15;;
20090;SDS011;10205;49.678;6.560;2022-09-09T05:45:05;4.60;;;1.35;;
20090;SDS011;10205;49.678;6.560;2022-09-09T05:47:34;3.35;;;1.13;;
20090;SDS011;10205;49.678;6.560;2022-09-09T05:50:04;3.25;;;1.25;;
20090;SDS011;10205;49.678;6.560;2022-09-09T05:52:33;4.68;;;1.40;;
20090;SDS011;10205;49.678;6.560;2022-09-09T05:55:00;6.03;;;1.35;;
20090;SDS011;10205;49.678;6.560;2022-09-09T05:57:29;6.13;;;1.75;;
20090;SDS011;10205;49.678;6.560;2022-09-09T05:59:59;3.42;;;1.30;;
20090;SDS011;10205;49.678;6.560;2022-09-09T06:02:26;3.47;;;1.45;;
20090;SDS011;10205;49.678;6.560;2022-09-09T06:04:53;3.78;;;1.27;;
20090;SDS011;10205;49.678;6.560;2022-09-09T06:07:25;5.10;;;1.15;;
20090;SDS011;10205;49.678;6.560;2022-09-09T06:09:52;6.88;;;1.65;;
20090;SDS011;10205;49.678;6.560;2022-09-09T06:12:19;3.17;;;1.15;;
20090;SDS011;10205;49.678;6.560;2022-09-09T06:14:47;3.10;;;1.05;;
20090;SDS011;10205;49.678;6.560;2022-09-09T06:17:15;5.97;;;1.48;;
20090;SDS011;10205;49.678;6.560;2022-09-09T06:19:43;4.72;;;1.30;;
20090;SDS011;10205;49.678;6.560;2022-09-09T06:22:10;2.97;;;1.30;;
20090;SDS011;10205;49.678;6.560;2022-09-09T06:24:39;3.92;;;1.30;;
20090;SDS011;10205;49.678;6.560;2022-09-09T06:27:06;3.67;;;1.80;;
20090;SDS011;10205;49.678;6.560;2022-09-09T06:29:34;5.03;;;1.15;;
20090;SDS011;10205;49.678;6.560;2022-09-09T06:32:01;3.13;;;1.38;;
20090;SDS011;10205;49.678;6.560;2022-09-09T06:34:29;4.22;;;1.40;;
20090;SDS011;10205;49.678;6.560;2022-09-09T06:36:56;3.20;;;1.20;;
20090;SDS011;10205;49.678;6.560;2022-09-09T06:39:26;2.08;;;1.00;;
20090;SDS011;10205;49.678;6.560;2022-09-09T06:41:55;3.72;;;1.67;;
20090;SDS011;10205;49.678;6.560;2022-09-09T06:44:23;3.65;;;1.10;;
20090;SDS011;10205;49.678;6.560;2022-09-09T06:46:51;5.32;;;1.38;;
20090;SDS011;10205;49.678;6.560;2022-09-09T06:49:18;4.10;;;1.48;;
20090;SDS011;10205;49.678;6.560;2022-09-09T06:51:46;3.50;;;1.42;;
20090;SDS011;10205;49.678;6.560;2022-09-09T06:54:14;6.25;;;1.42;;
20090;SDS011;10205;49.678;6.560;2022-09-09T06:56:42;9.30;;;1.70;;
20090;SDS011;10205;49.678;6.560;2022-09-09T06:59:11;11.13;;;1.60;;
20090;SDS011;10205;49.678;6.560;2022-09-09T07:01:39;5.63;;;1.30;;
20090;SDS011;10205;49.678;6.560;2022-09-09T07:04:09;6.38;;;1.55;;
20090;SDS011;10205;49.678;6.560;2022-09-09T07:06:38;2.83;;;1.35;;
20090;SDS011;10205;49.678;6.560;2022-09-09T07:09:09;6.43;;;1.45;;
20090;SDS011;10205;49.678;6.560;2022-09-09T07:11:38;4.82;;;1.98;;
20090;SDS011;10205;49.678;6.560;2022-09-09T07:14:08;4.97;;;1.45;;
20090;SDS011;10205;49.678;6.560;2022-09-09T07:16:39;3.72;;;1.30;;
20090;SDS011;10205;49.678;6.560;2022-09-09T07:19:07;4.35;;;1.50;;
20090;SDS011;10205;49.678;6.560;2022-09-09T07:21:34;2.72;;;1.02;;
20090;SDS011;10205;49.678;6.560;2022-09-09T07:24:02;5.00;;;1.38;;
20090;SDS011;10205;49.678;6.560;2022-09-09T07:26:32;5.57;;;1.40;;
20090;SDS011;10205;49.678;6.560;2022-09-09T07:29:01;2.95;;;1.10;;
20090;SDS011;10205;49.678;6.560;2022-09-09T07:31:29;5.15;;;1.52;;
20090;SDS011;10205;49.678;6.560;2022-09-09T07:33:59;3.75;;;1.25;;
20090;SDS011;10205;49.678;6.560;2022-09-09T07:36:28;3.80;;;1.17;;
20090;SDS011;10205;49.678;6.560;2022-09-09T07:38:58;3.33;;;1.20;;
20090;SDS011;10205;49.678;6.560;2022-09-09T07:41:28;3.80;;;1.30;;
20090;SDS011;10205;49.678;6.560;2022-09-09T07:43:59;6.65;;;1.67;;
20090;SDS011;10205;49.678;6.560;2022-09-09T07:46:31;3.33;;;1.35;;
20090;SDS011;10205;49.678;6.560;2022-09-09T07:49:00;4.07;;;1.20;;
20090;SDS011;10205;49.678;6.560;2022-09-09T07:51:29;4.53;;;1.25;;
20090;SDS011;10205;49.678;6.560;2022-09-09T07:53:58;2.63;;;1.10;;
20090;SDS011;10205;49.678;6.560;2022-09-09T07:56:28;4.00;;;1.55;;
20090;SDS011;10205;49.678;6.560;2022-09-09T07:58:57;5.68;;;1.67;;
20090;SDS011;10205;49.678;6.560;2022-09-09T08:01:26;6.32;;;1.75;;
20090;SDS011;10205;49.678;6.560;2022-09-09T08:03:57;5.47;;;1.40;;
20090;SDS011;10205;49.678;6.560;2022-09-09T08:06:29;3.92;;;1.20;;
20090;SDS011;10205;49.678;6.560;2022-09-09T08:09:01;3.45;;;1.40;;
20090;SDS011;10205;49.678;6.560;2022-09-09T08:11:29;7.35;;;1.70;;
20090;SDS011;10205;49.678;6.560;2022-09-09T08:13:58;4.68;;;1.30;;
20090;SDS011;10205;49.678;6.560;2022-09-09T08:16:25;3.30;;;1.20;;
20090;SDS011;10205;49.678;6.560;2022-09-09T08:18:56;5.00;;;1.52;;
20090;SDS011;10205;49.678;6.560;2022-09-09T08:21:26;5.40;;;1.38;;
20090;SDS011;10205;49.678;6.560;2022-09-09T08:23:57;2.17;;;1.10;;
20090;SDS011;10205;49.678;6.560;2022-09-09T08:26:27;3.95;;;1.17;;
20090;SDS011;10205;49.678;6.560;2022-09-09T08:28:57;5.32;;;1.40;;
20090;SDS011;10205;49.678;6.560;2022-09-09T08:31:26;6.15;;;1.88;;
20090;SDS011;10205;49.678;6.560;2022-09-09T08:33:56;6.40;;;1.50;;
20090;SDS011;10205;49.678;6.560;2022-09-09T08:36:28;7.40;;;1.60;;
20090;SDS011;10205;49.678;6.560;2022-09-09T08:38:58;3.65;;;1.10;;
20090;SDS011;10205;49.678;6.560;2022-09-09T08:41:36;3.95;;;1.30;;
20090;SDS011;10205;49.678;6.560;2022-09-09T08:44:22;3.08;;;1.20;;
20090;SDS011;10205;49.678;6.560;2022-09-09T08:47:05;4.18;;;1.25;;
20090;SDS011;10205;49.678;6.560;2022-09-09T08:49:53;3.45;;;1.30;;
20090;SDS011;10205;49.678;6.560;2022-09-09T08:52:41;3.47;;;1.30;;
20090;SDS011;10205;49.678;6.560;2022-09-09T08:55:21;4.53;;;1.15;;
20090;SDS011;10205;49.678;6.560;2022-09-09T08:58:02;4.10;;;1.63;;
20090;SDS011;10205;49.678;6.560;2022-09-09T09:00:41;5.10;;;1.60;;
20090;SDS011;10205;49.678;6.560;2022-09-09T09:03:34;3.92;;;1.40;;
20090;SDS011;10205;49.678;6.560;2022-09-09T09:06:16;5.88;;;1.63;;
20090;SDS011;10205;49.678;6.560;2022-09-09T09:09:01;3.85;;;1.15;;
20090;SDS011;10205;49.678;6.560;2022-09-09T09:11:35;2.58;;;1.30;;
20090;SDS011;10205;49.678;6.560;2022-09-09T09:14:07;4.47;;;1.13;;
20090;SDS011;10205;49.678;6.560;2022-09-09T09:16:42;6.95;;;1.70;;
20090;SDS011;10205;49.678;6.560;2022-09-09T09:19:19;4.50;;;1.35;;
20090;SDS011;10205;49.678;6.560;2022-09-09T09:21:51;6.40;;;1.58;;
20090;SDS011;10205;49.678;6.560;2022-09-09T09:24:29;2.92;;;1.05;;
20090;SDS011;10205;49.678;6.560;2022-09-09T09:27:09;5.60;;;1.67;;
20090;SDS011;10205;49.678;6.560;2022-09-09T09:29:40;10.95;;;1.50;;
20090;SDS011;10205;49.678;6.560;2022-09-09T09:32:10;4.70;;;1.27;;
20090;SDS011;10205;49.678;6.560;2022-09-09T09:34:48;5.45;;;1.70;;
20090;SDS011;10205;49.678;6.560;2022-09-09T09:37:20;6.45;;;1.50;;
20090;SDS011;10205;49.678;6.560;2022-09-09T09:39:55;5.45;;;1.52;;
20090;SDS011;10205;49.678;6.560;2022-09-09T09:42:22;4.13;;;1.13;;
20090;SDS011;10205;49.678;6.560;2022-09-09T09:44:51;7.15;;;1.40;;
20090;SDS011;10205;49.678;6.560;2022-09-09T09:47:19;6.40;;;1.30;;
20090;SDS011;10205;49.678;6.560;2022-09-09T09:49:51;6.10;;;1.20;;
20090;SDS011;10205;49.678;6.560;2022-09-09T09:52:21;4.38;;;1.48;;
20090;SDS011;10205;49.678;6.560;2022-09-09T09:54:55;4.28;;;1.15;;
20090;SDS011;10205;49.678;6.560;2022-09-09T09:57:28;6.35;;;1.35;;
20090;SDS011;10205;49.678;6.560;2022-09-09T10:00:02;2.60;;;1.20;;
20090;SDS011;10205;49.678;6.560;2022-09-09T10:02:39;3.85;;;1.10;;
20090;SDS011;10205;49.678;6.560;2022-09-09T10:05:12;2.85;;;1.10;;
20090;SDS011;10205;49.678;6.560;2022-09-09T10:07:43;3.72;;;1.38;;
20090;SDS011;10205;49.678;6.560;2022-09-09T10:10:13;5.05;;;1.33;;
20090;SDS011;10205;49.678;6.560;2022-09-09T10:12:52;5.00;;;1.60;;
20090;SDS011;10205;49.678;6.560;2022-09-09T10:15:31;2.67;;;1.17;;
20090;SDS011;10205;49.678;6.560;2022-09-09T10:18:15;2.45;;;1.08;;
20090;SDS011;10205;49.678;6.560;2022-09-09T10:21:03;3.40;;;1.38;;
20090;SDS011;10205;49.678;6.560;2022-09-09T10:23:51;2.28;;;0.90;;
20090;SDS011;10205;49.678;6.560;2022-09-09T10:26:47;5.60;;;1.38;;
20090;SDS011;10205;49.678;6.560;2022-09-09T10:32:35;3.10;;;0.95;;
20090;SDS011;10205;49.678;6.560;2022-09-09T10:35:14;2.33;;;0.82;;
20090;SDS011;10205;49.678;6.560;2022-09-09T10:38:05;4.03;;;1.10;;
20090;SDS011;10205;49.678;6.560;2022-09-09T10:43:50;3.30;;;0.70;;
20090;SDS011;10205;49.678;6.560;2022-09-09T10:46:50;1.33;;;0.65;;
20090;SDS011;10205;49.678;6.560;2022-09-09T10:49:42;4.28;;;1.13;;
20090;SDS011;10205;49.678;6.560;2022-09-09T10:52:35;2.08;;;0.60;;
20090;SDS011;10205;49.678;6.560;2022-09-09T10:55:14;1.80;;;0.80;;
20090;SDS011;10205;49.678;6.560;2022-09-09T10:57:45;1.23;;;0.60;;
20090;SDS011;10205;49.678;6.560;2022-09-09T11:00:17;2.28;;;0.88;;
20090;SDS011;10205;49.678;6.560;2022-09-09T11:02:48;2.25;;;0.80;;
20090;SDS011;10205;49.678;6.560;2022-09-09T11:05:24;2.28;;;1.00;;
20090;SDS011;10205;49.678;6.560;2022-09-09T11:07:59;5.25;;;1.00;;
20090;SDS011;10205;49.678;6.560;2022-09-09T11:10:33;2.70;;;1.08;;
20090;SDS011;10205;49.678;6.560;2022-09-09T11:13:10;3.17;;;0.75;;
20090;SDS011;10205;49.678;6.560;2022-09-09T11:15:46;2.63;;;0.80;;
20090;SDS011;10205;49.678;6.560;2022-09-09T11:18:21;3.15;;;0.80;;
20090;SDS011;10205;49.678;6.560;2022-09-09T11:20:50;2.78;;;0.68;;
20090;SDS011;10205;49.678;6.560;2022-09-09T11:23:24;2.05;;;0.95;;
20090;SDS011;10205;49.678;6.560;2022-09-09T11:26:02;1.73;;;0.60;;
20090;SDS011;10205;49.678;6.560;2022-09-09T11:28:39;2.65;;;0.80;;
20090;SDS011;10205;49.678;6.560;2022-09-09T11:31:31;2.35;;;0.85;;
20090;SDS011;10205;49.678;6.560;2022-09-09T11:34:17;5.57;;;0.88;;
20090;SDS011;10205;49.678;6.560;2022-09-09T11:40:14;2.22;;;0.68;;
20090;SDS011;10205;49.678;6.560;2022-09-09T11:43:00;3.05;;;0.70;;
20090;SDS011;10205;49.678;6.560;2022-09-09T11:45:31;1.20;;;0.50;;
20090;SDS011;10205;49.678;6.560;2022-09-09T11:48:03;2.33;;;0.85;;
20090;SDS011;10205;49.678;6.560;2022-09-09T11:50:33;1.52;;;0.68;;
20090;SDS011;10205;49.678;6.560;2022-09-09T11:53:04;1.48;;;0.50;;
20090;SDS011;10205;49.678;6.560;2022-09-09T11:55:47;2.25;;;0.80;;
20090;SDS011;10205;49.678;6.560;2022-09-09T11:58:31;1.38;;;0.50;;
20090;SDS011;10205;49.678;6.560;2022-09-09T12:07:01;2.08;;;0.57;;
20090;SDS011;10205;49.678;6.560;2022-09-09T12:09:44;2.47;;;0.95;;
20090;SDS011;10205;49.678;6.560;2022-09-09T12:12:27;2.58;;;0.70;;
20090;SDS011;10205;49.678;6.560;2022-09-09T12:15:01;2.13;;;0.60;;
20090;SDS011;10205;49.678;6.560;2022-09-09T12:17:46;3.80;;;0.73;;
20090;SDS011;10205;49.678;6.560;2022-09-09T12:20:19;2.83;;;0.73;;
20090;SDS011;10205;49.678;6.560;2022-09-09T12:25:58;1.92;;;0.75;;
20090;SDS011;10205;49.678;6.560;2022-09-09T12:28:45;2.85;;;0.80;;
20090;SDS011;10205;49.678;6.560;2022-09-09T12:31:23;2.63;;;0.65;;
20090;SDS011;10205;49.678;6.560;2022-09-09T12:34:03;3.78;;;1.02;;
20090;SDS011;10205;49.678;6.560;2022-09-09T12:36:41;2.72;;;0.90;;
20090;SDS011;10205;49.678;6.560;2022-09-09T12:39:19;2.53;;;0.77;;
20090;SDS011;10205;49.678;6.560;2022-09-09T12:41:57;2.33;;;0.85;;
20090;SDS011;10205;49.678;6.560;2022-09-09T12:44:24;1.38;;;0.90;;
20090;SDS011;10205;49.678;6.560;2022-09-09T12:46:58;2.08;;;0.80;;
20090;SDS011;10205;49.678;6.560;2022-09-09T12:49:30;2.05;;;0.90;;
20090;SDS011;10205;49.678;6.560;2022-09-09T12:52:04;1.25;;;0.70;;
20090;SDS011;10205;49.678;6.560;2022-09-09T12:54:42;2.53;;;1.02;;
20090;SDS011;10205;49.678;6.560;2022-09-09T12:57:25;2.17;;;1.10;;
20090;SDS011;10205;49.678;6.560;2022-09-09T13:00:07;3.72;;;0.90;;
20090;SDS011;10205;49.678;6.560;2022-09-09T13:02:47;1.88;;;0.65;;
20090;SDS011;10205;49.678;6.560;2022-09-09T13:05:18;1.88;;;0.80;;
20090;SDS011;10205;49.678;6.560;2022-09-09T13:07:50;2.65;;;0.98;;
20090;SDS011;10205;49.678;6.560;2022-09-09T13:10:23;2.58;;;1.20;;
20090;SDS011;10205;49.678;6.560;2022-09-09T13:12:55;1.33;;;0.63;;
20090;SDS011;10205;49.678;6.560;2022-09-09T13:15:23;2.33;;;0.95;;
20090;SDS011;10205;49.678;6.560;2022-09-09T13:17:56;3.08;;;0.60;;
20090;SDS011;10205;49.678;6.560;2022-09-09T13:20:28;2.88;;;0.70;;
20090;SDS011;10205;49.678;6.560;2022-09-09T13:22:57;3.45;;;0.70;;
20090;SDS011;10205;49.678;6.560;2022-09-09T13:25:25;4.38;;;1.08;;
20090;SDS011;10205;49.678;6.560;2022-09-09T13:27:58;1.23;;;0.60;;
20090;SDS011;10205;49.678;6.560;2022-09-09T13:30:28;1.35;;;0.77;;
20090;SDS011;10205;49.678;6.560;2022-09-09T13:33:02;3.08;;;0.73;;
20090;SDS011;10205;49.678;6.560;2022-09-09T13:35:49;1.42;;;0.60;;
20090;SDS011;10205;49.678;6.560;2022-09-09T13:38:22;1.77;;;0.77;;
20090;SDS011;10205;49.678;6.560;2022-09-09T13:40:55;1.05;;;0.55;;
20090;SDS011;10205;49.678;6.560;2022-09-09T13:43:27;1.33;;;0.80;;
20090;SDS011;10205;49.678;6.560;2022-09-09T13:45:58;1.25;;;0.60;;
20090;SDS011;10205;49.678;6.560;2022-09-09T13:48:28;2.38;;;0.70;;
20090;SDS011;10205;49.678;6.560;2022-09-09T13:50:58;5.65;;;0.70;;
20090;SDS011;10205;49.678;6.560;2022-09-09T13:53:29;1.58;;;0.70;;
20090;SDS011;10205;49.678;6.560;2022-09-09T13:55:57;1.63;;;0.50;;
20090;SDS011;10205;49.678;6.560;2022-09-09T13:58:26;1.58;;;0.73;;
20090;SDS011;10205;49.678;6.560;2022-09-09T14:00:54;1.40;;;0.57;;
20090;SDS011;10205;49.678;6.560;2022-09-09T14:03:22;1.20;;;0.50;;
20090;SDS011;10205;49.678;6.560;2022-09-09T14:05:49;1.77;;;0.55;;
20090;SDS011;10205;49.678;6.560;2022-09-09T14:08:21;2.63;;;0.60;;
20090;SDS011;10205;49.678;6.560;2022-09-09T14:10:54;0.50;;;0.30;;
20090;SDS011;10205;49.678;6.560;2022-09-09T14:13:24;3.17;;;0.57;;
20090;SDS011;10205;49.678;6.560;2022-09-09T14:15:51;1.75;;;0.40;;
20090;SDS011;10205;49.678;6.560;2022-09-09T14:18:19;0.75;;;0.32;;
20090;SDS011;10205;49.678;6.560;2022-09-09T14:20:47;0.75;;;0.38;;
20090;SDS011;10205;49.678;6.560;2022-09-09T14:23:15;0.98;;;0.40;;
20090;SDS011;10205;49.678;6.560;2022-09-09T14:25:43;1.00;;;0.43;;
20090;SDS011;10205;49.678;6.560;2022-09-09T14:28:13;0.80;;;0.40;;
20090;SDS011;10205;49.678;6.560;2022-09-09T14:30:41;1.17;;;0.60;;
20090;SDS011;10205;49.678;6.560;2022-09-09T14:33:13;0.55;;;0.40;;
20090;SDS011;10205;49.678;6.560;2022-09-09T14:35:42;1.13;;;0.38;;
20090;SDS011;10205;49.678;6.560;2022-09-09T14:38:09;0.80;;;0.40;;
20090;SDS011;10205;49.678;6.560;2022-09-09T14:40:37;2.05;;;0.52;;
20090;SDS011;10205;49.678;6.560;2022-09-09T14:43:05;1.20;;;0.30;;
20090;SDS011;10205;49.678;6.560;2022-09-09T14:45:35;0.75;;;0.30;;
20090;SDS011;10205;49.678;6.560;2022-09-09T14:48:03;2.00;;;0.50;;
20090;SDS011;10205;49.678;6.560;2022-09-09T14:50:31;0.60;;;0.30;;
20090;SDS011;10205;49.678;6.560;2022-09-09T14:52:59;2.55;;;0.50;;
20090;SDS011;10205;49.678;6.560;2022-09-09T14:55:27;1.67;;;0.50;;
20090;SDS011;10205;49.678;6.560;2022-09-09T14:57:54;1.27;;;0.45;;
20090;SDS011;10205;49.678;6.560;2022-09-09T15:00:21;2.05;;;0.43;;
20090;SDS011;10205;49.678;6.560;2022-09-09T15:02:53;0.77;;;0.43;;
20090;SDS011;10205;49.678;6.560;2022-09-09T15:05:20;1.25;;;0.50;;
20090;SDS011;10205;49.678;6.560;2022-09-09T15:07:49;1.73;;;0.60;;
20090;SDS011;10205;49.678;6.560;2022-09-09T15:10:16;2.67;;;0.63;;
20090;SDS011;10205;49.678;6.560;2022-09-09T15:12:43;2.67;;;0.50;;
20090;SDS011;10205;49.678;6.560;2022-09-09T15:15:11;0.88;;;0.38;;
20090;SDS011;10205;49.678;6.560;2022-09-09T15:17:38;1.27;;;0.40;;
20090;SDS011;10205;49.678;6.560;2022-09-09T15:20:08;4.88;;;0.75;;
20090;SDS011;10205;49.678;6.560;2022-09-09T15:22:36;1.58;;;0.35;;
20090;SDS011;10205;49.678;6.560;2022-09-09T15:25:03;1.75;;;0.40;;
20090;SDS011;10205;49.678;6.560;2022-09-09T15:27:33;1.63;;;0.60;;
20090;SDS011;10205;49.678;6.560;2022-09-09T15:30:00;2.15;;;0.60;;
20090;SDS011;10205;49.678;6.560;2022-09-09T15:32:27;1.25;;;0.50;;
20090;SDS011;10205;49.678;6.560;2022-09-09T15:34:55;0.70;;;0.40;;
20090;SDS011;10205;49.678;6.560;2022-09-09T15:37:24;1.63;;;0.50;;
20090;SDS011;10205;49.678;6.560;2022-09-09T15:39:51;0.75;;;0.40;;